createdAt,value
2023-07-10T00:01:05.618Z,12.9
2023-07-10T00:02:12.628Z,12.9
2023-07-10T00:03:19.824Z,12.9
2023-07-10T00:04:26.342Z,12.9
2023-07-10T00:05:33.445Z,12.9
2023-07-10T00:06:40.532Z,12.8
2023-07-10T00:07:47.757Z,12.8
2023-07-10T00:08:54.779Z,12.8
2023-07-10T00:10:01.858Z,12.8
2023-07-10T00:11:08.488Z,12.8
2023-07-10T00:12:15.564Z,12.8
2023-07-10T00:13:22.790Z,12.8
2023-07-10T00:14:29.784Z,12.8
2023-07-10T00:15:36.354Z,12.7
2023-07-10T00:16:43.523Z,12.7
2023-07-10T00:17:50.637Z,12.7
2023-07-10T00:18:57.694Z,12.7
2023-07-10T00:21:11.360Z,12.7
2023-07-10T00:22:18.481Z,12.7
2023-07-10T00:23:25.585Z,12.7
2023-07-10T00:24:32.747Z,12.7
2023-07-10T00:25:39.786Z,12.7
2023-07-10T00:26:46.417Z,12.7
2023-07-10T00:27:53.464Z,12.7
2023-07-10T00:29:00.579Z,12.7
2023-07-10T00:30:07.702Z,12.7
2023-07-10T00:31:14.843Z,12.7
2023-07-10T00:32:21.378Z,12.7
2023-07-10T00:33:28.561Z,12.7
2023-07-10T00:34:35.608Z,12.7
2023-07-10T00:35:42.697Z,12.7
2023-07-10T00:36:49.812Z,12.7
2023-07-10T00:37:56.400Z,12.7
2023-07-10T00:39:03.992Z,12.7
2023-07-10T00:40:10.580Z,12.8
2023-07-10T00:41:17.724Z,12.8
2023-07-10T00:42:26.325Z,12.8
2023-07-10T00:43:31.367Z,12.8
2023-07-10T00:44:38.580Z,12.8
2023-07-10T00:45:45.624Z,12.9
2023-07-10T00:46:52.739Z,12.9
2023-07-10T00:48:00.024Z,12.9
2023-07-10T00:49:06.411Z,12.9
2023-07-10T00:50:13.519Z,12.9
2023-07-10T00:51:20.622Z,12.9
2023-07-10T00:52:27.755Z,12.9
2023-07-10T00:53:34.857Z,12.9
2023-07-10T00:54:41.400Z,12.8
2023-07-10T00:55:48.540Z,12.9
2023-07-10T00:56:55.639Z,12.9
2023-07-10T00:59:09.314Z,12.9
2023-07-10T01:00:16.465Z,12.9
2023-07-10T01:01:23.587Z,12.9
2023-07-10T01:02:30.700Z,12.8
2023-07-10T01:03:37.759Z,12.9
2023-07-10T01:04:44.354Z,12.9
2023-07-10T01:05:51.394Z,12.9
2023-07-10T01:06:58.553Z,12.8
2023-07-10T01:08:05.635Z,12.9
2023-07-10T01:09:12.773Z,12.9
2023-07-10T01:10:19.367Z,12.9
2023-07-10T01:11:26.473Z,13
2023-07-10T01:12:33.531Z,13
2023-07-10T01:13:40.711Z,13
2023-07-10T01:14:47.788Z,13
2023-07-10T01:15:54.338Z,13
2023-07-10T01:17:01.479Z,13
2023-07-10T01:18:08.646Z,13.1
2023-07-10T01:19:15.667Z,13.1
2023-07-10T01:20:22.787Z,13.1
2023-07-10T01:21:29.881Z,13.1
2023-07-10T01:22:36.441Z,13.1
2023-07-10T01:23:43.552Z,13.1
2023-07-10T01:24:50.801Z,13.1
2023-07-10T01:25:57.823Z,13.1
2023-07-10T01:27:04.381Z,13.2
2023-07-10T01:28:11.422Z,13.2
2023-07-10T01:29:18.585Z,13.2
2023-07-10T01:30:25.692Z,13.2
2023-07-10T01:31:32.754Z,13.2
2023-07-10T01:32:39.454Z,13.2
2023-07-10T01:33:46.452Z,13.2
2023-07-10T01:34:54.083Z,13.3
2023-07-10T01:36:00.713Z,13.3
2023-07-10T01:37:07.783Z,13.3
2023-07-10T01:38:14.398Z,13.4
2023-07-10T01:39:21.444Z,13.4
2023-07-10T01:40:28.606Z,13.4
2023-07-10T01:41:35.698Z,13.4
2023-07-10T01:42:43.331Z,13.4
2023-07-10T01:43:49.408Z,13.4
2023-07-10T01:44:56.523Z,13.4
2023-07-10T01:46:03.777Z,13.4
2023-07-10T01:47:10.678Z,13.4
2023-07-10T01:48:17.988Z,13.4
2023-07-10T01:49:24.438Z,13.4
2023-07-10T01:50:31.608Z,13.4
2023-07-10T01:51:38.601Z,13.4
2023-07-10T01:52:45.727Z,13.4
2023-07-10T01:53:52.768Z,13.4
2023-07-10T01:54:59.390Z,13.4
2023-07-10T01:56:06.763Z,13.4
2023-07-10T01:57:13.585Z,13.4
2023-07-10T01:58:20.678Z,13.4
2023-07-10T01:59:27.823Z,13.4
2023-07-10T02:00:34.394Z,13.4
2023-07-10T02:01:42.820Z,13.4
2023-07-10T02:02:48.771Z,13.4
2023-07-10T02:03:55.870Z,13.4
2023-07-10T02:05:02.816Z,13.4
2023-07-10T02:06:09.404Z,13.4
2023-07-10T02:07:16.533Z,13.4
2023-07-10T02:08:23.610Z,13.4
2023-07-10T02:09:30.720Z,13.4
2023-07-10T02:10:44.463Z,13.4
2023-07-10T02:11:44.381Z,13.4
2023-07-10T02:12:51.500Z,13.4
2023-07-10T02:13:58.689Z,13.4
2023-07-10T02:15:05.733Z,13.4
2023-07-10T02:16:12.293Z,13.3
2023-07-10T02:17:19.521Z,13.3
2023-07-10T02:18:26.549Z,13.3
2023-07-10T02:19:33.721Z,13.3
2023-07-10T02:20:40.738Z,13.3
2023-07-10T02:21:47.315Z,13.3
2023-07-10T02:22:54.414Z,13.3
2023-07-10T02:24:01.521Z,13.3
2023-07-10T02:25:08.637Z,13.2
2023-07-10T02:27:22.404Z,13.2
2023-07-10T02:28:29.448Z,13.2
2023-07-10T02:29:36.542Z,13.2
2023-07-10T02:30:43.655Z,13.2
2023-07-10T02:31:50.763Z,13.2
2023-07-10T02:32:57.934Z,13.2
2023-07-10T02:34:04.493Z,13.2
2023-07-10T02:35:11.539Z,13.2
2023-07-10T02:36:18.662Z,13.2
2023-07-10T02:37:25.767Z,13.2
2023-07-10T02:38:32.327Z,13.2
2023-07-10T02:39:39.466Z,13.2
2023-07-10T02:40:46.550Z,13.2
2023-07-10T02:41:53.636Z,13.2
2023-07-10T02:43:00.728Z,13.2
2023-07-10T02:44:07.438Z,13.2
2023-07-10T02:45:14.433Z,13.2
2023-07-10T02:46:22.126Z,13.3
2023-07-10T02:47:28.702Z,13.3
2023-07-10T02:48:35.768Z,13.3
2023-07-10T02:49:42.326Z,13.3
2023-07-10T02:50:49.482Z,13.3
2023-07-10T02:51:56.567Z,13.3
2023-07-10T02:53:03.685Z,13.3
2023-07-10T02:54:10.819Z,13.4
2023-07-10T02:55:17.369Z,13.4
2023-07-10T02:56:24.438Z,13.4
2023-07-10T02:57:31.637Z,13.4
2023-07-10T02:58:38.712Z,13.4
2023-07-10T02:59:45.785Z,13.4
2023-07-10T03:00:52.381Z,13.4
2023-07-10T03:01:59.497Z,13.4
2023-07-10T03:03:07.129Z,13.4
2023-07-10T03:04:13.681Z,13.4
2023-07-10T03:05:20.788Z,13.4
2023-07-10T03:06:27.401Z,13.4
2023-07-10T03:07:34.471Z,13.4
2023-07-10T03:08:41.567Z,13.4
2023-07-10T03:09:48.787Z,13.4
2023-07-10T03:10:55.822Z,13.4
2023-07-10T03:12:02.357Z,13.4
2023-07-10T03:13:09.493Z,13.4
2023-07-10T03:14:16.670Z,13.4
2023-07-10T03:15:23.712Z,13.4
2023-07-10T03:16:30.896Z,13.4
2023-07-10T03:17:37.422Z,13.4
2023-07-10T03:18:44.491Z,13.4
2023-07-10T03:19:51.578Z,13.4
2023-07-10T03:20:58.722Z,13.4
2023-07-10T03:22:05.822Z,13.4
2023-07-10T03:23:12.392Z,13.4
2023-07-10T03:24:19.535Z,13.4
2023-07-10T03:25:26.614Z,13.4
2023-07-10T03:26:33.725Z,13.4
2023-07-10T03:27:40.295Z,13.4
2023-07-10T03:28:47.403Z,13.4
2023-07-10T03:29:54.551Z,13.4
2023-07-10T03:32:08.727Z,13.4
2023-07-10T03:33:15.351Z,13.4
2023-07-10T03:34:22.417Z,13.4
2023-07-10T03:35:29.524Z,13.4
2023-07-10T03:36:36.666Z,13.4
2023-07-10T03:37:43.716Z,13.4
2023-07-10T03:38:50.363Z,13.4
2023-07-10T03:39:57.475Z,13.4
2023-07-10T03:41:04.505Z,13.4
2023-07-10T03:42:11.632Z,13.4
2023-07-10T03:43:18.760Z,13.4
2023-07-10T03:44:25.861Z,13.4
2023-07-10T03:45:32.540Z,13.5
2023-07-10T03:46:39.600Z,13.5
2023-07-10T03:47:46.742Z,13.5
2023-07-10T03:48:53.765Z,13.5
2023-07-10T03:50:00.925Z,13.5
2023-07-10T03:51:07.543Z,13.5
2023-07-10T03:52:14.559Z,13.5
2023-07-10T03:53:21.637Z,13.5
2023-07-10T03:55:35.339Z,13.5
2023-07-10T03:56:42.416Z,13.6
2023-07-10T03:57:49.552Z,13.6
2023-07-10T03:58:56.651Z,13.6
2023-07-10T04:00:03.738Z,13.6
2023-07-10T04:01:10.391Z,13.6
2023-07-10T04:02:17.465Z,13.6
2023-07-10T04:03:24.557Z,13.6
2023-07-10T04:04:31.666Z,13.7
2023-07-10T04:05:38.762Z,13.6
2023-07-10T04:06:45.427Z,13.7
2023-07-10T04:07:52.440Z,13.7
2023-07-10T04:08:59.607Z,13.7
2023-07-10T04:10:06.723Z,13.7
2023-07-10T04:11:13.770Z,13.7
2023-07-10T04:12:20.358Z,13.7
2023-07-10T04:13:27.500Z,13.7
2023-07-10T04:14:34.661Z,13.7
2023-07-10T04:15:41.669Z,13.7
2023-07-10T04:16:48.867Z,13.8
2023-07-10T04:17:55.437Z,13.8
2023-07-10T04:19:02.462Z,13.8
2023-07-10T04:20:09.606Z,13.8
2023-07-10T04:21:16.725Z,13.8
2023-07-10T04:22:26.201Z,13.8
2023-07-10T04:23:30.371Z,13.8
2023-07-10T04:24:37.497Z,13.8
2023-07-10T04:25:44.559Z,13.8
2023-07-10T04:26:51.700Z,13.8
2023-07-10T04:27:58.293Z,13.8
2023-07-10T04:29:05.423Z,13.8
2023-07-10T04:30:12.463Z,13.8
2023-07-10T04:31:20.299Z,13.8
2023-07-10T04:32:26.701Z,13.8
2023-07-10T04:33:35.440Z,13.8
2023-07-10T04:34:40.421Z,13.8
2023-07-10T04:35:47.505Z,13.8
2023-07-10T04:36:54.607Z,13.8
2023-07-10T04:38:01.688Z,13.9
2023-07-10T04:39:08.306Z,13.9
2023-07-10T04:40:15.479Z,13.9
2023-07-10T04:41:22.494Z,13.9
2023-07-10T04:42:29.602Z,13.9
2023-07-10T04:43:36.757Z,13.9
2023-07-10T04:44:43.282Z,13.9
2023-07-10T04:45:50.414Z,13.9
2023-07-10T04:46:57.600Z,13.9
2023-07-10T04:48:04.777Z,13.9
2023-07-10T04:49:11.724Z,13.9
2023-07-10T04:50:18.321Z,14
2023-07-10T04:51:25.432Z,13.9
2023-07-10T04:52:32.520Z,13.9
2023-07-10T04:53:40.128Z,13.9
2023-07-10T04:54:46.753Z,14
2023-07-10T04:55:53.810Z,14
2023-07-10T04:57:00.405Z,14
2023-07-10T04:58:07.526Z,14
2023-07-10T04:59:14.662Z,14
2023-07-10T05:00:21.783Z,14
2023-07-10T05:01:28.340Z,14.1
2023-07-10T05:02:35.593Z,14.1
2023-07-10T05:03:42.544Z,14.1
2023-07-10T05:04:49.772Z,14.1
2023-07-10T05:05:56.743Z,14.1
2023-07-10T05:07:03.343Z,14.1
2023-07-10T05:08:11.557Z,14.1
2023-07-10T05:09:17.567Z,14.2
2023-07-10T05:10:24.654Z,14.2
2023-07-10T05:11:31.863Z,14.2
2023-07-10T05:12:38.341Z,14.2
2023-07-10T05:13:45.559Z,14.3
2023-07-10T05:14:52.560Z,14.3
2023-07-10T05:15:59.706Z,14.3
2023-07-10T05:17:06.764Z,14.3
2023-07-10T05:18:13.330Z,14.3
2023-07-10T05:19:20.452Z,14.3
2023-07-10T05:20:27.614Z,14.4
2023-07-10T05:21:34.666Z,14.4
2023-07-10T05:23:48.406Z,14.4
2023-07-10T05:24:55.544Z,14.4
2023-07-10T05:26:02.911Z,14.4
2023-07-10T05:27:09.691Z,14.4
2023-07-10T05:28:16.791Z,14.4
2023-07-10T05:29:23.376Z,14.4
2023-07-10T05:30:30.533Z,14.4
2023-07-10T05:31:37.661Z,14.4
2023-07-10T05:32:44.745Z,14.4
2023-07-10T05:33:51.246Z,14.4
2023-07-10T05:34:58.393Z,14.4
2023-07-10T05:36:05.691Z,14.4
2023-07-10T05:37:12.570Z,14.4
2023-07-10T05:39:26.282Z,14.5
2023-07-10T05:40:33.368Z,14.5
2023-07-10T05:41:40.462Z,14.5
2023-07-10T05:42:47.590Z,14.5
2023-07-10T05:43:54.713Z,14.6
2023-07-10T05:45:01.304Z,14.6
2023-07-10T05:46:08.894Z,14.6
2023-07-10T05:47:15.527Z,14.6
2023-07-10T05:48:22.636Z,14.6
2023-07-10T05:49:29.881Z,14.6
2023-07-10T05:50:36.301Z,14.7
2023-07-10T05:51:43.368Z,14.7
2023-07-10T05:52:50.471Z,14.8
2023-07-10T05:53:57.622Z,14.8
2023-07-10T05:55:04.768Z,14.8
2023-07-10T05:56:11.375Z,14.8
2023-07-10T05:57:18.934Z,14.8
2023-07-10T05:58:25.539Z,14.8
2023-07-10T05:59:33.128Z,14.9
2023-07-10T06:00:39.745Z,14.9
2023-07-10T06:01:46.392Z,14.9
2023-07-10T06:02:53.401Z,15
2023-07-10T06:04:00.544Z,15.1
2023-07-10T06:05:07.688Z,15.1
2023-07-10T06:06:14.725Z,15.2
2023-07-10T06:07:21.305Z,15.2
2023-07-10T06:08:28.416Z,15.3
2023-07-10T06:09:35.517Z,15.3
2023-07-10T06:10:42.617Z,15.4
2023-07-10T06:11:49.732Z,15.5
2023-07-10T06:12:56.336Z,15.5
2023-07-10T06:14:03.473Z,15.5
2023-07-10T06:15:10.499Z,15.6
2023-07-10T06:16:17.725Z,15.6
2023-07-10T06:17:24.726Z,15.7
2023-07-10T06:18:31.293Z,15.7
2023-07-10T06:19:38.427Z,15.8
2023-07-10T06:20:45.584Z,15.8
2023-07-10T06:21:52.609Z,15.8
2023-07-10T06:22:59.732Z,15.9
2023-07-10T06:24:06.325Z,15.9
2023-07-10T06:25:13.421Z,15.9
2023-07-10T06:26:20.519Z,15.9
2023-07-10T06:27:27.652Z,16
2023-07-10T06:28:34.756Z,16.1
2023-07-10T06:29:41.377Z,16.1
2023-07-10T06:30:48.474Z,16.1
2023-07-10T06:31:55.633Z,16.3
2023-07-10T06:33:02.700Z,16.3
2023-07-10T06:34:09.752Z,16.4
2023-07-10T06:35:16.341Z,16.6
2023-07-10T06:36:23.459Z,16.8
2023-07-10T06:37:30.536Z,17
2023-07-10T06:38:37.676Z,17.2
2023-07-10T06:39:44.841Z,17.5
2023-07-10T06:40:51.367Z,17.6
2023-07-10T06:41:58.476Z,17.8
2023-07-10T06:43:05.580Z,18
2023-07-10T06:44:12.678Z,18.1
2023-07-10T06:45:19.774Z,18.2
2023-07-10T06:46:26.416Z,18.3
2023-07-10T06:47:33.522Z,18.4
2023-07-10T06:48:40.575Z,18.6
2023-07-10T06:49:47.675Z,18.7
2023-07-10T06:52:01.368Z,19.1
2023-07-10T06:53:19.652Z,19.3
2023-07-10T06:54:15.591Z,19.4
2023-07-10T06:55:22.768Z,19.4
2023-07-10T06:56:29.286Z,19.4
2023-07-10T06:57:36.372Z,19.4
2023-07-10T06:58:43.475Z,19.5
2023-07-10T06:59:50.566Z,19.7
2023-07-10T07:00:57.311Z,19.8
2023-07-10T07:02:06.051Z,19.8
2023-07-10T07:03:11.397Z,19.9
2023-07-10T07:04:18.491Z,20
2023-07-10T07:05:25.633Z,20
2023-07-10T07:06:32.684Z,20.1
2023-07-10T07:07:39.319Z,20.3
2023-07-10T07:08:46.472Z,20.4
2023-07-10T07:09:53.508Z,20.6
2023-07-10T07:11:00.612Z,20.7
2023-07-10T07:12:07.717Z,20.8
2023-07-10T07:13:14.284Z,21
2023-07-10T07:14:21.369Z,21.1
2023-07-10T07:15:28.565Z,21.1
2023-07-10T07:16:35.604Z,21.1
2023-07-10T07:17:42.748Z,21.2
2023-07-10T07:18:56.205Z,21.5
2023-07-10T07:19:56.498Z,21.6
2023-07-10T07:21:03.511Z,21.7
2023-07-10T07:22:10.603Z,21.8
2023-07-10T07:23:17.741Z,21.9
2023-07-10T07:24:24.311Z,22
2023-07-10T07:25:31.439Z,22.2
2023-07-10T07:26:38.530Z,22.1
2023-07-10T07:27:46.160Z,22
2023-07-10T07:28:52.709Z,21.9
2023-07-10T07:29:59.736Z,21.9
2023-07-10T07:31:09.869Z,21.9
2023-07-10T07:32:13.534Z,21.7
2023-07-10T07:33:20.618Z,21.7
2023-07-10T07:34:27.744Z,21.7
2023-07-10T07:35:34.288Z,21.6
2023-07-10T07:36:41.409Z,21.7
2023-07-10T07:37:48.562Z,21.7
2023-07-10T07:38:55.637Z,21.7
2023-07-10T07:40:02.868Z,21.9
2023-07-10T07:41:09.331Z,21.9
2023-07-10T07:42:16.441Z,21.9
2023-07-10T07:43:23.588Z,22
2023-07-10T07:44:30.625Z,22
2023-07-10T07:46:44.586Z,22
2023-07-10T07:47:51.553Z,22
2023-07-10T07:48:58.571Z,22.1
2023-07-10T07:50:05.674Z,22.1
2023-07-10T07:51:12.384Z,22.1
2023-07-10T07:52:19.355Z,22.1
2023-07-10T07:53:26.545Z,22
2023-07-10T07:54:33.554Z,21.9
2023-07-10T07:55:40.650Z,21.9
2023-07-10T07:56:47.330Z,21.9
2023-07-10T07:57:54.326Z,21.9
2023-07-10T07:59:01.481Z,21.8
2023-07-10T08:00:08.596Z,21.8
2023-07-10T08:01:15.672Z,21.9
2023-07-10T08:02:22.256Z,22
2023-07-10T08:03:29.595Z,22
2023-07-10T08:04:37.146Z,22
2023-07-10T08:05:43.721Z,22.1
2023-07-10T08:06:50.663Z,22.1
2023-07-10T08:07:57.262Z,22.2
2023-07-10T08:10:11.475Z,22.3
2023-07-10T08:12:26.257Z,22.3
2023-07-10T08:13:32.281Z,22.4
2023-07-10T08:14:39.376Z,22.3
2023-07-10T08:15:46.497Z,22.3
2023-07-10T08:16:53.613Z,22.3
2023-07-10T08:18:00.743Z,22.2
2023-07-10T08:20:14.348Z,22.2
2023-07-10T08:21:21.500Z,22.2
2023-07-10T08:22:28.632Z,22.4
2023-07-10T08:23:35.197Z,22.4
2023-07-10T08:24:42.280Z,22.3
2023-07-10T08:25:49.424Z,22.2
2023-07-10T08:26:56.509Z,22.3
2023-07-10T08:28:03.644Z,22.5
2023-07-10T08:29:10.231Z,22.6
2023-07-10T08:30:17.418Z,22.5
2023-07-10T08:31:24.399Z,22.4
2023-07-10T08:32:31.603Z,22.5
2023-07-10T08:33:38.630Z,22.6
2023-07-10T08:34:45.201Z,22.6
2023-07-10T08:35:52.271Z,22.6
2023-07-10T08:36:59.437Z,22.4
2023-07-10T08:38:06.542Z,22.4
2023-07-10T08:39:13.630Z,22.4
2023-07-10T08:40:20.216Z,22.4
2023-07-10T08:41:27.310Z,22.4
2023-07-10T08:42:34.422Z,22.5
2023-07-10T08:43:41.491Z,22.6
2023-07-10T08:44:48.779Z,22.6
2023-07-10T08:45:55.292Z,22.6
2023-07-10T08:47:02.409Z,22.6
2023-07-10T08:48:09.481Z,22.5
2023-07-10T08:49:16.543Z,22.5
2023-07-10T08:50:23.679Z,22.5
2023-07-10T08:51:30.240Z,22.5
2023-07-10T08:52:37.301Z,22.4
2023-07-10T08:53:44.425Z,22.3
2023-07-10T08:54:51.533Z,22.3
2023-07-10T08:55:58.778Z,22.3
2023-07-10T08:57:05.319Z,22.3
2023-07-10T08:58:12.302Z,22.3
2023-07-10T08:59:19.419Z,22.2
2023-07-10T09:00:26.550Z,22.1
2023-07-10T09:01:33.658Z,22.1
2023-07-10T09:02:40.288Z,22.1
2023-07-10T09:03:47.369Z,22.1
2023-07-10T09:04:54.413Z,22.1
2023-07-10T09:06:01.556Z,22.1
2023-07-10T09:07:08.652Z,22.2
2023-07-10T09:08:15.770Z,22.3
2023-07-10T09:09:22.311Z,22.3
2023-07-10T09:10:29.453Z,22.3
2023-07-10T09:11:36.548Z,22.3
2023-07-10T09:12:43.642Z,22.1
2023-07-10T09:13:50.328Z,22
2023-07-10T09:14:57.428Z,21.9
2023-07-10T09:16:04.851Z,21.7
2023-07-10T09:17:11.624Z,21.4
2023-07-10T09:18:18.675Z,21.2
2023-07-10T09:19:25.297Z,20.8
2023-07-10T09:20:32.445Z,20.7
2023-07-10T09:21:39.552Z,20.5
2023-07-10T09:22:46.618Z,20.3
2023-07-10T09:23:53.141Z,20.1
2023-07-10T09:25:00.252Z,20
2023-07-10T09:26:07.556Z,19.9
2023-07-10T09:27:14.486Z,19.8
2023-07-10T09:28:21.581Z,19.9
2023-07-10T09:29:28.167Z,20
2023-07-10T09:30:35.338Z,20.2
2023-07-10T09:31:42.425Z,20.3
2023-07-10T09:32:49.531Z,20.4
2023-07-10T09:33:56.605Z,20.6
2023-07-10T09:35:03.927Z,20.6
2023-07-10T09:36:10.257Z,20.5
2023-07-10T09:37:17.386Z,20.4
2023-07-10T09:38:24.490Z,20.3
2023-07-10T09:39:31.584Z,20.4
2023-07-10T09:40:38.201Z,20.4
2023-07-10T09:41:45.312Z,20.5
2023-07-10T09:42:52.364Z,20.6
2023-07-10T09:43:59.532Z,20.6
2023-07-10T09:45:06.629Z,20.7
2023-07-10T09:46:13.288Z,20.8
2023-07-10T09:47:20.501Z,20.9
2023-07-10T09:48:27.417Z,21
2023-07-10T09:49:34.476Z,21.1
2023-07-10T09:50:41.606Z,21.1
2023-07-10T09:51:48.225Z,21.2
2023-07-10T09:52:55.367Z,21.3
2023-07-10T09:54:02.409Z,21.4
2023-07-10T09:55:09.501Z,21.5
2023-07-10T09:56:16.611Z,21.5
2023-07-10T09:57:23.196Z,21.6
2023-07-10T09:58:30.418Z,21.6
2023-07-10T09:59:37.418Z,21.5
2023-07-10T10:00:44.549Z,21.6
2023-07-10T10:01:51.705Z,21.6
2023-07-10T10:02:58.346Z,21.6
2023-07-10T10:04:05.457Z,21.6
2023-07-10T10:05:12.486Z,21.6
2023-07-10T10:06:19.565Z,21.6
2023-07-10T10:07:26.632Z,21.6
2023-07-10T10:08:33.223Z,21.4
2023-07-10T10:09:40.361Z,21.4
2023-07-10T10:10:47.505Z,21.4
2023-07-10T10:11:55.093Z,21.4
2023-07-10T10:13:01.627Z,21.4
2023-07-10T10:14:08.287Z,21.5
2023-07-10T10:15:15.344Z,21.5
2023-07-10T10:16:22.439Z,21.6
2023-07-10T10:17:29.629Z,21.6
2023-07-10T10:18:36.227Z,21.6
2023-07-10T10:19:43.246Z,21.6
2023-07-10T10:20:50.345Z,21.6
2023-07-10T10:21:57.450Z,21.6
2023-07-10T10:23:04.521Z,21.5
2023-07-10T10:24:11.669Z,21.3
2023-07-10T10:25:18.286Z,21.3
2023-07-10T10:26:25.415Z,21.3
2023-07-10T10:27:32.442Z,21.3
2023-07-10T10:28:39.571Z,21.3
2023-07-10T10:29:46.635Z,21.2
2023-07-10T10:30:53.225Z,21.3
2023-07-10T10:32:00.417Z,21.3
2023-07-10T10:33:07.505Z,21.3
2023-07-10T10:34:14.561Z,21.3
2023-07-10T10:35:21.331Z,21.3
2023-07-10T10:36:28.269Z,21.3
2023-07-10T10:37:35.364Z,21.3
2023-07-10T10:38:42.433Z,21.3
2023-07-10T10:39:49.604Z,21.3
2023-07-10T10:40:56.213Z,21.3
2023-07-10T10:42:03.257Z,21.3
2023-07-10T10:43:10.360Z,21.3
2023-07-10T10:44:17.509Z,21.3
2023-07-10T10:45:24.627Z,21.3
2023-07-10T10:46:31.269Z,21.2
2023-07-10T10:47:38.341Z,21.1
2023-07-10T10:48:45.372Z,21.1
2023-07-10T10:49:52.486Z,21.1
2023-07-10T10:50:59.593Z,21.1
2023-07-10T10:52:06.190Z,21
2023-07-10T10:53:13.272Z,20.9
2023-07-10T10:54:32.331Z,20.9
2023-07-10T10:55:27.492Z,20.9
2023-07-10T10:57:41.161Z,21
2023-07-10T10:58:48.297Z,20.9
2023-07-10T10:59:55.411Z,20.7
2023-07-10T11:01:02.583Z,20.5
2023-07-10T11:02:09.610Z,20.3
2023-07-10T11:03:16.332Z,20.1
2023-07-10T11:04:23.432Z,20
2023-07-10T11:05:30.392Z,20.1
2023-07-10T11:06:37.512Z,20.1
2023-07-10T11:07:44.587Z,20.2
2023-07-10T11:08:51.201Z,20.1
2023-07-10T11:09:58.345Z,20
2023-07-10T11:11:05.442Z,19.8
2023-07-10T11:12:12.529Z,19.6
2023-07-10T11:13:19.599Z,19.4
2023-07-10T11:14:26.729Z,19.3
2023-07-10T11:16:40.408Z,19.1
2023-07-10T11:17:47.554Z,19.1
2023-07-10T11:18:54.616Z,19.1
2023-07-10T11:20:01.234Z,19
2023-07-10T11:21:08.307Z,19
2023-07-10T11:22:15.430Z,18.9
2023-07-10T11:23:22.589Z,18.9
2023-07-10T11:24:29.667Z,19
2023-07-10T11:25:36.305Z,19.1
2023-07-10T11:26:43.300Z,19.3
2023-07-10T11:27:50.437Z,19.3
2023-07-10T11:29:07.899Z,19.1
2023-07-10T11:30:04.636Z,19.1
2023-07-10T11:31:11.248Z,19.1
2023-07-10T11:32:18.487Z,19
2023-07-10T11:33:25.446Z,19
2023-07-10T11:34:32.547Z,19.1
2023-07-10T11:35:39.136Z,19.2
2023-07-10T11:37:53.317Z,19.4
2023-07-10T11:39:00.436Z,19.5
2023-07-10T11:40:07.582Z,19.6
2023-07-10T11:41:14.117Z,19.6
2023-07-10T11:42:21.253Z,19.7
2023-07-10T11:43:28.327Z,19.8
2023-07-10T11:44:35.473Z,19.8
2023-07-10T11:45:42.551Z,19.8
2023-07-10T11:46:49.214Z,19.8
2023-07-10T11:47:56.328Z,19.8
2023-07-10T11:49:03.360Z,19.8
2023-07-10T11:50:10.427Z,19.8
2023-07-10T11:51:17.608Z,19.8
2023-07-10T11:52:26.649Z,19.8
2023-07-10T11:53:31.314Z,19.8
2023-07-10T11:54:38.360Z,19.9
2023-07-10T11:55:45.543Z,19.8
2023-07-10T11:56:52.535Z,19.9
2023-07-10T11:57:59.157Z,19.9
2023-07-10T11:59:06.250Z,19.8
2023-07-10T12:00:13.466Z,19.7
2023-07-10T12:01:20.521Z,19.7
2023-07-10T12:02:27.601Z,19.7
2023-07-10T12:03:34.177Z,19.7
2023-07-10T12:04:41.250Z,19.7
2023-07-10T12:05:48.413Z,19.7
2023-07-10T12:06:55.529Z,19.7
2023-07-10T12:08:05.608Z,19.7
2023-07-10T12:09:09.496Z,19.7
2023-07-10T12:10:16.290Z,19.7
2023-07-10T12:11:23.372Z,19.7
2023-07-10T12:12:30.474Z,19.7
2023-07-10T12:13:37.646Z,19.7
2023-07-10T12:14:44.151Z,19.7
2023-07-10T12:15:51.332Z,19.7
2023-07-10T12:17:18.264Z,19.7
2023-07-10T12:18:05.589Z,19.6
2023-07-10T12:19:13.222Z,19.6
2023-07-10T12:20:19.200Z,19.5
2023-07-10T12:21:26.641Z,19.4
2023-07-10T12:22:33.391Z,19.4
2023-07-10T12:23:40.474Z,19.4
2023-07-10T12:24:47.164Z,19.4
2023-07-10T12:25:54.184Z,19.4
2023-07-10T12:29:15.533Z,19.5
2023-07-10T12:30:22.088Z,19.4
2023-07-10T12:31:29.231Z,19.4
2023-07-10T12:32:36.351Z,19.4
2023-07-10T12:33:43.415Z,19.3
2023-07-10T12:34:50.512Z,19.3
2023-07-10T12:35:57.125Z,19.3
2023-07-10T12:37:04.209Z,19.3
2023-07-10T12:38:11.284Z,19.4
2023-07-10T12:39:18.439Z,19.4
2023-07-10T12:40:25.521Z,19.6
2023-07-10T12:41:32.097Z,19.5
2023-07-10T12:42:39.258Z,19.5
2023-07-10T12:44:53.410Z,19.4
2023-07-10T12:46:00.620Z,19.4
2023-07-10T12:47:07.151Z,19.4
2023-07-10T12:48:14.489Z,19.4
2023-07-10T12:49:21.315Z,19.4
2023-07-10T12:50:28.419Z,19.3
2023-07-10T12:51:35.563Z,19.3
2023-07-10T12:52:42.099Z,19.3
2023-07-10T12:53:49.251Z,19.4
2023-07-10T12:54:56.370Z,19.4
2023-07-10T12:56:09.460Z,19.5
2023-07-10T12:57:10.542Z,19.6
2023-07-10T12:58:17.163Z,19.6
2023-07-10T12:59:24.288Z,19.6
2023-07-10T13:00:31.453Z,19.6
2023-07-10T13:01:38.452Z,19.6
2023-07-10T13:02:45.656Z,19.6
2023-07-10T13:04:59.241Z,19.6
2023-07-10T13:06:06.564Z,19.4
2023-07-10T13:07:29.160Z,19.3
2023-07-10T13:08:20.570Z,19.3
2023-07-10T13:09:27.144Z,19.3
2023-07-10T13:10:34.221Z,19.2
2023-07-10T13:11:42.781Z,19.1
2023-07-10T13:12:48.433Z,19.1
2023-07-10T13:14:05.852Z,19
2023-07-10T13:15:02.157Z,19
2023-07-10T13:16:09.341Z,19
2023-07-10T13:17:16.399Z,19
2023-07-10T13:18:23.484Z,18.9
2023-07-10T13:19:30.583Z,18.9
2023-07-10T13:20:37.742Z,18.9
2023-07-10T13:21:44.250Z,18.8
2023-07-10T13:22:51.944Z,18.8
2023-07-10T13:23:58.605Z,18.7
2023-07-10T13:25:05.688Z,18.7
2023-07-10T13:26:12.140Z,18.6
2023-07-10T13:27:19.285Z,18.7
2023-07-10T13:28:43.536Z,18.6
2023-07-10T13:29:33.929Z,18.6
2023-07-10T13:30:40.082Z,18.6
2023-07-10T13:31:47.210Z,18.5
2023-07-10T13:32:54.306Z,18.4
2023-07-10T13:34:01.384Z,18.4
2023-07-10T13:35:08.503Z,18.4
2023-07-10T13:36:15.102Z,18.4
2023-07-10T13:37:22.203Z,18.4
2023-07-10T13:38:29.259Z,18.3
2023-07-10T13:39:36.430Z,18.3
2023-07-10T13:40:43.475Z,18.3
2023-07-10T13:41:50.167Z,18.3
2023-07-10T13:42:57.196Z,18.2
2023-07-10T13:44:05.501Z,18.2
2023-07-10T13:45:11.391Z,18.2
2023-07-10T13:46:18.555Z,18.3
2023-07-10T13:47:25.156Z,18.3
2023-07-10T13:48:32.201Z,18.3
2023-07-10T13:49:39.295Z,18.3
2023-07-10T13:50:46.567Z,18.3
2023-07-10T13:51:53.506Z,18.3
2023-07-10T13:53:00.095Z,18.3
2023-07-10T13:54:07.221Z,18.3
2023-07-10T13:55:14.344Z,18.3
2023-07-10T13:56:21.406Z,18.3
2023-07-10T13:57:30.265Z,18.3
2023-07-10T13:58:35.198Z,18.3
2023-07-10T13:59:42.179Z,18.2
2023-07-10T14:00:49.422Z,18.2
2023-07-10T14:01:56.528Z,18.1
2023-07-10T14:03:03.571Z,18.1
2023-07-10T14:04:10.155Z,18
2023-07-10T14:05:17.240Z,17.8
2023-07-10T14:06:24.380Z,17.7
2023-07-10T14:08:38.544Z,17.3
2023-07-10T14:09:45.136Z,17.1
2023-07-10T14:10:52.212Z,16.9
2023-07-10T14:11:59.348Z,16.9
2023-07-10T14:13:06.458Z,16.8
2023-07-10T14:14:13.644Z,16.7
2023-07-10T14:15:20.101Z,16.7
2023-07-10T14:16:27.292Z,16.7
2023-07-10T14:17:34.358Z,16.6
2023-07-10T14:18:41.451Z,16.6
2023-07-10T14:19:48.581Z,16.6
2023-07-10T14:20:55.179Z,16.6
2023-07-10T14:22:02.258Z,16.5
2023-07-10T14:23:09.389Z,16.4
2023-07-10T14:24:16.463Z,16.4
2023-07-10T14:25:23.065Z,16.4
2023-07-10T14:26:30.768Z,16.3
2023-07-10T14:27:37.272Z,16.4
2023-07-10T14:28:44.352Z,16.3
2023-07-10T14:29:51.431Z,16.4
2023-07-10T14:30:58.122Z,16.4
2023-07-10T14:32:05.219Z,16.5
2023-07-10T14:33:12.268Z,16.6
2023-07-10T14:34:19.375Z,16.6
2023-07-10T14:35:26.504Z,16.6
2023-07-10T14:36:33.584Z,16.7
2023-07-10T14:37:40.283Z,16.7
2023-07-10T14:38:47.291Z,16.9
2023-07-10T14:39:54.369Z,16.9
2023-07-10T14:41:01.457Z,17
2023-07-10T14:42:08.088Z,17.1
2023-07-10T14:43:15.178Z,17.1
2023-07-10T14:44:22.246Z,17.2
2023-07-10T14:45:29.383Z,17.3
2023-07-10T14:46:36.549Z,17.3
2023-07-10T14:47:43.093Z,17.4
2023-07-10T14:49:57.321Z,17.5
2023-07-10T14:51:04.709Z,17.6
2023-07-10T14:52:11.509Z,17.6
2023-07-10T14:53:18.095Z,17.6
2023-07-10T14:54:25.193Z,17.7
2023-07-10T14:55:32.292Z,17.7
2023-07-10T14:56:39.403Z,17.8
2023-07-10T14:57:46.515Z,17.8
2023-07-10T14:58:53.061Z,17.9
2023-07-10T15:00:00.271Z,18
2023-07-10T15:01:07.577Z,18.1
2023-07-10T15:02:14.398Z,18.2
2023-07-10T15:03:21.688Z,18.2
2023-07-10T15:04:28.102Z,18.3
2023-07-10T15:05:35.238Z,18.3
2023-07-10T15:06:42.400Z,18.3
2023-07-10T15:07:49.420Z,18.4
2023-07-10T15:08:56.569Z,18.4
2023-07-10T15:10:09.993Z,18.5
2023-07-10T15:12:17.347Z,18.6
2023-07-10T15:13:24.460Z,18.6
2023-07-10T15:14:31.527Z,18.7
2023-07-10T15:15:38.177Z,18.7
2023-07-10T15:16:45.322Z,18.7
2023-07-10T15:17:52.462Z,18.7
2023-07-10T15:18:59.482Z,18.7
2023-07-10T15:20:06.559Z,18.7